createdAt,value
2019-05-14T00:02:02.796Z,5.18
2019-05-14T00:06:07.969Z,5.23
2019-05-14T00:10:13.389Z,5.20
2019-05-14T00:14:18.268Z,5.11
2019-05-14T00:18:23.156Z,5.03
2019-05-14T00:22:28.047Z,5.08
2019-05-14T00:26:32.937Z,5.08
2019-05-14T00:30:37.827Z,5.08
2019-05-14T00:34:42.722Z,5.14
2019-05-14T00:38:47.594Z,5.16
2019-05-14T00:42:53.285Z,5.16
2019-05-14T00:46:59.417Z,5.12
2019-05-14T00:51:04.312Z,5.06
2019-05-14T00:55:11.717Z,5.02
2019-05-14T00:59:16.429Z,5.01
2019-05-14T01:03:21.862Z,5.05
2019-05-14T01:07:26.838Z,5.02
2019-05-14T01:11:31.726Z,5.02
2019-05-14T01:15:36.608Z,5.02
2019-05-14T01:19:42.547Z,4.99
2019-05-14T01:23:47.673Z,4.95
2019-05-14T01:27:52.564Z,4.96
2019-05-14T01:31:57.451Z,4.98
2019-05-14T01:36:02.370Z,5.02
2019-05-14T01:40:08.055Z,5.05
2019-05-14T01:44:12.945Z,5.06
2019-05-14T01:48:17.837Z,5.08
2019-05-14T01:52:22.723Z,5.12
2019-05-14T01:56:27.620Z,5.11
2019-05-14T02:00:32.561Z,5.07
2019-05-14T02:04:37.454Z,5.11
2019-05-14T02:08:42.340Z,5.11
2019-05-14T02:12:47.240Z,5.09
2019-05-14T02:16:52.106Z,5.09
2019-05-14T02:20:56.995Z,5.10
2019-05-14T02:25:02.389Z,5.10
2019-05-14T02:29:08.321Z,5.06
2019-05-14T02:33:13.212Z,5.05
2019-05-14T02:37:19.423Z,5.03
2019-05-14T02:41:24.623Z,5.03
2019-05-14T02:45:30.347Z,4.98
2019-05-14T02:49:39.359Z,4.95
2019-05-14T02:53:43.099Z,4.92
2019-05-14T02:57:50.120Z,4.87
2019-05-14T03:01:54.568Z,4.78
2019-05-14T03:06:00.524Z,4.72
2019-05-14T03:10:09.629Z,4.74
2019-05-14T03:14:13.317Z,4.76
2019-05-14T03:18:19.912Z,4.71
2019-05-14T03:22:38.848Z,4.69
2019-05-14T03:26:31.553Z,4.62
2019-05-14T03:30:41.728Z,4.62
2019-05-14T03:34:44.098Z,4.57
2019-05-14T03:38:50.263Z,4.56
2019-05-14T03:42:55.485Z,4.55
2019-05-14T03:47:04.999Z,4.55
2019-05-14T03:51:09.031Z,4.61
2019-05-14T03:55:13.673Z,4.61
2019-05-14T03:59:19.977Z,4.58
2019-05-14T04:03:29.201Z,4.51
2019-05-14T04:07:34.356Z,4.58
2019-05-14T04:11:42.456Z,4.63
2019-05-14T04:15:49.714Z,4.68
2019-05-14T04:19:59.729Z,4.83
2019-05-14T04:24:04.550Z,5.13
2019-05-14T04:28:12.486Z,6.58
2019-05-14T04:32:20.382Z,7.44
2019-05-14T04:36:25.506Z,10.72
2019-05-14T04:40:30.407Z,13.23
2019-05-14T04:44:35.287Z,14.95
2019-05-14T04:48:43.428Z,16.49
2019-05-14T04:52:49.427Z,17.48
2019-05-14T04:56:53.375Z,17.84
2019-05-14T05:01:00.668Z,18.36
2019-05-14T05:05:08.828Z,19.02
2019-05-14T05:09:12.593Z,19.63
2019-05-14T05:13:18.433Z,19.25
2019-05-14T05:17:40.176Z,19.99
2019-05-14T05:21:30.185Z,19.77
2019-05-14T05:25:35.060Z,19.81
2019-05-14T05:29:39.949Z,21.61
2019-05-14T05:33:44.840Z,21.74
2019-05-14T05:37:49.736Z,21.43
2019-05-14T05:41:54.634Z,21.68
2019-05-14T05:45:59.528Z,22.08
2019-05-14T05:50:08.719Z,21.14
2019-05-14T05:54:13.310Z,20.90
2019-05-14T05:58:19.695Z,22.21
2019-05-14T06:02:24.673Z,22.18
2019-05-14T06:06:29.578Z,21.93
2019-05-14T06:10:34.469Z,21.72
2019-05-14T06:14:39.363Z,21.29
2019-05-14T06:18:44.272Z,22.03
2019-05-14T06:22:49.171Z,22.45
2019-05-14T06:26:54.066Z,20.80
2019-05-14T06:30:59.203Z,21.20
2019-05-14T06:35:08.806Z,21.22
2019-05-14T06:39:14.966Z,22.17
2019-05-14T06:43:19.859Z,21.01
2019-05-14T06:47:24.763Z,20.99
2019-05-14T06:51:29.648Z,21.09
2019-05-14T06:55:34.543Z,20.59
2019-05-14T06:59:39.442Z,19.91
2019-05-14T07:03:44.602Z,19.79
2019-05-14T07:07:49.588Z,17.71
2019-05-14T07:11:54.475Z,14.01
2019-05-14T07:15:59.365Z,12.43
2019-05-14T07:20:08.660Z,11.36
2019-05-14T07:24:14.172Z,10.97
2019-05-14T07:28:19.364Z,10.54
2019-05-14T07:32:24.381Z,10.42
2019-05-14T07:36:29.563Z,10.50
2019-05-14T07:40:34.587Z,10.57
2019-05-14T07:44:39.487Z,10.56
2019-05-14T07:48:44.381Z,10.47
2019-05-14T07:52:49.860Z,10.54
2019-05-14T07:56:54.840Z,10.62
2019-05-14T08:00:59.735Z,10.54
2019-05-14T08:05:08.628Z,10.53
2019-05-14T08:09:13.073Z,10.58
2019-05-14T08:13:19.111Z,10.72
2019-05-14T08:17:24.040Z,10.73
2019-05-14T08:21:29.436Z,10.82
2019-05-14T08:25:34.341Z,10.88
2019-05-14T08:29:40.100Z,10.98
2019-05-14T08:33:45.198Z,11.07
2019-05-14T08:38:03.450Z,11.09
2019-05-14T08:42:03.593Z,11.21
2019-05-14T08:46:03.282Z,11.30
2019-05-14T08:50:09.126Z,11.49
2019-05-14T08:54:14.182Z,11.64
2019-05-14T08:58:20.371Z,11.70
2019-05-14T09:02:25.459Z,11.91
2019-05-14T09:06:30.399Z,12.13
2019-05-14T09:10:35.350Z,12.21
2019-05-14T09:14:40.230Z,12.05
2019-05-14T09:18:45.136Z,12.19
2019-05-14T09:22:50.025Z,12.40
2019-05-14T09:26:54.922Z,12.50
2019-05-14T09:30:59.897Z,12.91
2019-05-14T09:35:06.042Z,13.34
2019-05-14T09:39:12.169Z,13.73
2019-05-14T09:43:18.269Z,13.83
2019-05-14T09:47:24.086Z,13.81
2019-05-14T09:51:29.002Z,13.38
2019-05-14T09:55:33.888Z,13.10
2019-05-14T09:59:38.776Z,13.10
2019-05-14T10:03:43.669Z,13.07
2019-05-14T10:07:49.503Z,13.11
2019-05-14T10:11:54.439Z,13.30
2019-05-14T10:15:59.340Z,13.50
2019-05-14T10:20:05.173Z,13.68
2019-05-14T10:24:10.053Z,13.72
2019-05-14T10:28:14.954Z,13.71
2019-05-14T10:32:19.844Z,13.49
2019-05-14T10:36:24.747Z,13.27
2019-05-14T10:40:29.691Z,13.15
2019-05-14T10:44:34.587Z,12.87
2019-05-14T10:48:39.757Z,12.94
2019-05-14T10:52:44.666Z,13.49
2019-05-14T10:56:49.680Z,13.98
2019-05-14T11:00:54.531Z,14.22
2019-05-14T11:04:59.448Z,14.45
2019-05-14T11:09:05.998Z,14.30
2019-05-14T11:13:10.912Z,14.16
2019-05-14T11:17:15.804Z,13.94
2019-05-14T11:21:26.353Z,13.70
2019-05-14T11:25:28.756Z,13.80
2019-05-14T11:29:33.772Z,13.54
2019-05-14T11:33:39.009Z,13.31
2019-05-14T11:37:44.141Z,13.47
2019-05-14T11:41:49.378Z,13.92
2019-05-14T11:45:54.455Z,13.74
2019-05-14T11:49:59.366Z,13.68
2019-05-14T11:54:04.339Z,14.06
2019-05-14T11:58:09.230Z,14.40
2019-05-14T12:02:14.121Z,14.37
2019-05-14T12:06:19.014Z,14.10
2019-05-14T12:10:23.906Z,14.00
2019-05-14T12:14:28.808Z,14.07
2019-05-14T12:18:33.703Z,14.08
2019-05-14T12:22:39.309Z,14.30
2019-05-14T12:26:45.640Z,14.53
2019-05-14T12:30:50.539Z,14.07
2019-05-14T12:34:55.435Z,14.32
2019-05-14T12:39:01.095Z,14.52
2019-05-14T12:43:09.548Z,14.75
2019-05-14T12:47:14.174Z,14.85
2019-05-14T12:51:19.083Z,14.83
2019-05-14T12:55:23.984Z,14.42
2019-05-14T12:59:28.901Z,14.24
2019-05-14T13:03:33.790Z,14.46
2019-05-14T13:07:41.551Z,14.92
2019-05-14T13:11:45.363Z,14.87
2019-05-14T13:15:50.256Z,14.68
2019-05-14T13:19:55.149Z,14.64
2019-05-14T13:24:00.037Z,14.11
2019-05-14T13:28:04.928Z,13.93
2019-05-14T13:32:12.311Z,14.12
2019-05-14T13:36:19.768Z,14.68
2019-05-14T13:40:23.105Z,15.30
2019-05-14T13:44:29.167Z,15.23
2019-05-14T13:48:38.279Z,14.73
2019-05-14T13:52:58.248Z,14.49
2019-05-14T13:56:48.383Z,14.70
2019-05-14T14:00:53.455Z,15.22
2019-05-14T14:04:58.999Z,15.61
2019-05-14T14:09:11.952Z,14.87
2019-05-14T14:13:12.199Z,14.87
2019-05-14T14:17:18.463Z,14.46
2019-05-14T14:21:23.582Z,14.64
2019-05-14T14:25:29.769Z,15.11
2019-05-14T14:29:34.846Z,15.23
2019-05-14T14:33:39.764Z,15.14
2019-05-14T14:37:44.649Z,14.73
2019-05-14T14:41:49.553Z,14.71
2019-05-14T14:45:54.448Z,14.99
2019-05-14T14:50:00.388Z,15.52
2019-05-14T14:54:11.904Z,15.25
2019-05-14T14:58:12.138Z,15.09
2019-05-14T15:02:19.711Z,14.98
2019-05-14T15:06:23.596Z,14.80
2019-05-14T15:10:28.628Z,14.86
2019-05-14T15:14:33.474Z,14.88
2019-05-14T15:18:38.752Z,14.75
2019-05-14T15:22:43.839Z,14.60
2019-05-14T15:26:48.908Z,14.38
2019-05-14T15:30:53.803Z,14.19
2019-05-14T15:34:59.603Z,14.34
2019-05-14T15:39:09.742Z,14.46
2019-05-14T15:43:14.114Z,14.59
2019-05-14T15:47:19.080Z,14.67
2019-05-14T15:51:23.901Z,14.51
2019-05-14T15:55:28.978Z,14.21
2019-05-14T15:59:33.867Z,14.06
2019-05-14T16:03:41.376Z,13.96
2019-05-14T16:07:45.406Z,13.81
2019-05-14T16:11:50.297Z,13.64
2019-05-14T16:15:55.199Z,13.49
2019-05-14T16:20:00.475Z,13.56
2019-05-14T16:24:05.352Z,13.67
2019-05-14T16:28:10.233Z,13.69
2019-05-14T16:32:15.144Z,13.64
2019-05-14T16:36:20.052Z,13.60
2019-05-14T16:40:24.930Z,13.58
2019-05-14T16:44:30.809Z,13.60
2019-05-14T16:48:35.692Z,13.71
2019-05-14T16:52:42.305Z,13.77
2019-05-14T16:56:48.293Z,13.83
2019-05-14T17:00:53.362Z,13.90
2019-05-14T17:04:59.062Z,13.84
2019-05-14T17:09:05.455Z,13.75
2019-05-14T17:13:10.367Z,13.66
2019-05-14T17:17:15.267Z,13.58
2019-05-14T17:21:20.157Z,13.53
2019-05-14T17:25:27.004Z,13.53
2019-05-14T17:29:31.643Z,13.49
2019-05-14T17:33:39.173Z,13.38
2019-05-14T17:37:43.127Z,13.38
2019-05-14T17:41:48.527Z,13.36
2019-05-14T17:45:53.509Z,13.28
2019-05-14T17:49:59.092Z,13.29
2019-05-14T17:54:03.966Z,13.23
2019-05-14T17:58:13.149Z,13.03
2019-05-14T18:02:15.480Z,12.86
2019-05-14T18:06:20.376Z,12.76
2019-05-14T18:10:25.272Z,12.62
2019-05-14T18:14:30.155Z,12.52
2019-05-14T18:18:35.121Z,12.40
2019-05-14T18:22:42.335Z,12.28
2019-05-14T18:26:48.108Z,12.23
2019-05-14T18:30:53.078Z,12.18
2019-05-14T18:34:58.251Z,12.13
2019-05-14T18:39:04.121Z,12.06
2019-05-14T18:43:09.083Z,11.97
2019-05-14T18:47:16.841Z,11.92
2019-05-14T18:51:20.570Z,11.88
2019-05-14T18:55:25.841Z,11.82
2019-05-14T18:59:31.083Z,11.81
2019-05-14T19:03:39.300Z,11.70
2019-05-14T19:07:42.597Z,11.57
2019-05-14T19:11:48.266Z,11.50
2019-05-14T19:15:53.261Z,11.44
2019-05-14T19:19:58.972Z,11.34
2019-05-14T19:24:04.029Z,11.21
2019-05-14T19:28:09.015Z,11.08
2019-05-14T19:32:14.861Z,11.01
2019-05-14T19:36:19.759Z,10.95
2019-05-14T19:40:24.658Z,10.84
2019-05-14T19:44:29.821Z,10.72
2019-05-14T19:48:34.815Z,10.60
2019-05-14T19:52:39.712Z,10.49
2019-05-14T19:56:55.701Z,10.37
2019-05-14T20:00:51.209Z,10.25
2019-05-14T20:04:58.660Z,10.13
2019-05-14T20:09:03.052Z,9.99
2019-05-14T20:13:08.407Z,9.89
2019-05-14T20:17:14.270Z,9.72
2019-05-14T20:21:19.160Z,9.57
2019-05-14T20:25:24.054Z,9.47
2019-05-14T20:29:28.927Z,9.34
2019-05-14T20:33:33.883Z,9.27
2019-05-14T20:37:39.181Z,8.99
2019-05-14T20:41:44.146Z,8.78
2019-05-14T20:45:49.189Z,8.71
2019-05-14T20:49:53.991Z,8.72
2019-05-14T20:53:58.873Z,8.58
2019-05-14T20:58:03.769Z,8.35
2019-05-14T21:02:08.661Z,8.12
2019-05-14T21:06:13.552Z,7.83
2019-05-14T21:10:19.260Z,7.68
2019-05-14T21:14:25.349Z,7.50
2019-05-14T21:18:35.034Z,7.42
2019-05-14T21:22:39.710Z,7.48
2019-05-14T21:26:43.369Z,7.51
2019-05-14T21:30:48.647Z,7.42
2019-05-14T21:34:53.613Z,7.28
2019-05-14T21:38:58.768Z,7.13
2019-05-14T21:43:03.661Z,7.02
2019-05-14T21:47:08.549Z,6.95
2019-05-14T21:51:13.424Z,6.82
2019-05-14T21:55:19.834Z,6.87
2019-05-14T21:59:24.885Z,6.93
2019-05-14T22:03:29.844Z,6.89
2019-05-14T22:07:34.732Z,6.64
2019-05-14T22:11:39.681Z,6.40
2019-05-14T22:15:44.570Z,6.38
2019-05-14T22:19:49.461Z,6.41
2019-05-14T22:23:54.346Z,6.43
2019-05-14T22:28:11.595Z,6.43
2019-05-14T22:32:08.193Z,6.29
2019-05-14T22:36:13.281Z,6.12
2019-05-14T22:40:18.449Z,6.04
2019-05-14T22:44:23.276Z,5.91
2019-05-14T22:48:28.165Z,5.95
2019-05-14T22:52:33.048Z,5.87
2019-05-14T22:56:38.911Z,5.73
2019-05-14T23:00:48.136Z,5.67
2019-05-14T23:04:50.714Z,5.70
2019-05-14T23:08:58.004Z,5.56
2019-05-14T23:13:02.171Z,5.35
2019-05-14T23:17:08.042Z,5.27
2019-05-14T23:21:13.222Z,5.32
2019-05-14T23:25:18.601Z,5.21
2019-05-14T23:29:23.568Z,5.05
2019-05-14T23:33:28.908Z,4.85
2019-05-14T23:37:34.844Z,4.75
2019-05-14T23:41:39.800Z,4.74
2019-05-14T23:45:44.682Z,4.77
2019-05-14T23:49:49.572Z,4.74
2019-05-14T23:53:54.441Z,4.83
2019-05-14T23:57:59.332Z,4.87
